PWSweather.com
Personal Weather Stations
Station Observations
WISCHPK61
Green Bay Schmitt Park, Green Bay, WI 54311

Green Bay Schmitt ParkGreen Bay, WI 54311

Lat: 44.514277, Lon: -87.935067

Elevation: 735

Station Type: Acu Rite Pro Weather Center model 02032C

http://greenbayweathercam.com

High Low Average
Temperature 68.7°F20.4°C 58.8°F14.9°C 63.0°F17.2°C
Dew Point 68.4°F20.2°C 58.5°F14.7°C 62.7°F17.1°C
Winds 1.2 mph 1.9 kmh Calm Calm Calm SSWCalm SSW
Wind Gusts 5.8 mph9.3 kmh -- --
Humidity 99% 99% 99%
Pressure 29.47 in998.0 mb 29.15 in987.1 mb -
Precipitation 0.12 in3.0 mm - -
Hour Temp Dew Point Humidity Winds Wind Gusts Pressure Precip Precip Rate Daily Precip Total
12:00 AM 66.9°F19.4°C 66.6°F19.2°C 99% Calm Calm -- 29.16 in987.5 mb - 0.00 in0.0 mm 0.00 in0.0 mm
02:00 AM 66.6°F19.2°C 66.3°F19.1°C 99% Calm Calm -- 29.15 in987.1 mb - 0.00 in0.0 mm 0.00 in0.0 mm
03:00 AM 66.0°F18.9°C 65.7°F18.7°C 99% Calm Calm -- 29.18 in988.1 mb - 0.00 in0.0 mm 0.00 in0.0 mm
04:00 AM 64.0°F17.8°C 63.7°F17.6°C 99% Calm Calm -- 29.17 in987.8 mb - 0.06 in1.5 mm 0.06 in1.5 mm
05:00 AM 63.4°F17.4°C 63.1°F17.3°C 99% Calm Calm 5.8 mph9.3 kmh 29.19 in988.5 mb - 0.06 in1.5 mm 0.11 in2.8 mm
06:00 AM 60.0°F15.6°C 59.8°F15.4°C 99% 1.2 mph W1.9 kmh W 2.3 mph3.7 kmh 29.23 in989.8 mb - 0.02 in0.5 mm 0.12 in3.0 mm
07:00 AM 59.2°F15.1°C 58.9°F14.9°C 99% Calm Calm -- 29.25 in990.5 mb - 0.00 in0.0 mm 0.12 in3.0 mm
08:00 AM 58.8°F14.9°C 58.5°F14.7°C 99% Calm Calm -- 29.27 in991.2 mb - 0.00 in0.0 mm 0.12 in3.0 mm
09:00 AM 59.7°F15.4°C 59.4°F15.2°C 99% Calm Calm -- 29.29 in991.9 mb - 0.00 in0.0 mm 0.12 in3.0 mm
10:00 AM 59.9°F15.5°C 59.6°F15.3°C 99% Calm Calm -- 29.31 in992.6 mb - 0.00 in0.0 mm 0.12 in3.0 mm
11:00 AM 62.4°F16.9°C 62.1°F16.7°C 99% Calm Calm -- 29.32 in992.9 mb - 0.00 in0.0 mm 0.12 in3.0 mm
12:00 PM 66.2°F19.0°C 65.9°F18.8°C 99% Calm Calm -- 29.34 in993.6 mb - 0.00 in0.0 mm 0.12 in3.0 mm
01:00 PM 68.7°F20.4°C 68.4°F20.2°C 99% Calm Calm 2.3 mph3.7 kmh 29.35 in993.9 mb - 0.00 in0.0 mm 0.12 in3.0 mm
02:00 PM 68.2°F20.1°C 67.9°F19.9°C 99% Calm Calm -- 29.37 in994.6 mb - 0.00 in0.0 mm 0.12 in3.0 mm
04:00 PM 66.6°F19.2°C 66.3°F19.1°C 99% Calm Calm -- 29.38 in994.9 mb - 0.00 in0.0 mm 0.12 in3.0 mm
05:00 PM 64.6°F18.1°C 64.3°F17.9°C 99% Calm Calm -- 29.38 in994.9 mb - 0.00 in0.0 mm 0.12 in3.0 mm
06:00 PM 62.8°F17.1°C 62.5°F16.9°C 99% Calm Calm -- 29.38 in994.9 mb - 0.00 in0.0 mm 0.12 in3.0 mm
07:00 PM 61.5°F16.4°C 61.2°F16.2°C 99% Calm Calm -- 29.40 in995.6 mb - 0.00 in0.0 mm 0.12 in3.0 mm
09:00 PM 59.5°F15.3°C 59.2°F15.1°C 99% Calm Calm -- 29.44 in997.0 mb - 0.00 in0.0 mm 0.12 in3.0 mm
10:00 PM 59.0°F15.0°C 58.7°F14.8°C 99% Calm Calm -- 29.46 in997.6 mb - 0.00 in0.0 mm 0.12 in3.0 mm
11:00 PM 58.8°F14.9°C 58.5°F14.7°C 99% Calm Calm -- 29.47 in998.0 mb - 0.00 in0.0 mm 0.14 in3.6 mm